createdAt,value
2018-06-11T00:06:45.200Z,22.2
2018-06-11T00:16:43.550Z,22.1
2018-06-11T00:26:43.015Z,22.1
2018-06-11T00:36:42.488Z,21.9
2018-06-11T00:46:41.494Z,21.9
2018-06-11T00:56:40.968Z,21.8
2018-06-11T01:06:39.654Z,21.8
2018-06-11T01:16:38.568Z,21.7
2018-06-11T01:26:37.794Z,21.7
2018-06-11T01:36:37.056Z,21.6
2018-06-11T01:46:37.793Z,21.6
2018-06-11T01:56:36.152Z,21.6
2018-06-11T02:06:35.763Z,21.5
2018-06-11T02:16:34.815Z,21.4
2018-06-11T02:26:33.178Z,21.3
2018-06-11T02:36:32.384Z,21.3
2018-06-11T02:46:31.864Z,21.3
2018-06-11T02:56:31.683Z,21.2
2018-06-11T03:06:31.422Z,21.2
2018-06-11T03:16:30.518Z,21.2
2018-06-11T03:26:28.725Z,21.1
2018-06-11T03:36:28.228Z,21.2
2018-06-11T03:46:27.246Z,21.3
2018-06-11T03:56:27.297Z,21.4
2018-06-11T04:06:26.075Z,21.6
2018-06-11T04:16:25.135Z,21.7
2018-06-11T04:26:24.319Z,22.1
2018-06-11T04:36:23.967Z,22.3
2018-06-11T04:46:23.206Z,22.6
2018-06-11T04:56:21.935Z,22.9
2018-06-11T05:06:21.229Z,23.2
2018-06-11T05:16:20.970Z,23.5
2018-06-11T05:26:19.271Z,23.7
2018-06-11T05:36:18.876Z,23.8
2018-06-11T05:46:17.951Z,23.9
2018-06-11T05:56:18.019Z,23.9
2018-06-11T06:06:17.104Z,24.1
2018-06-11T06:16:15.471Z,24.2
2018-06-11T06:26:15.406Z,24.4
2018-06-11T06:36:13.979Z,24.6
2018-06-11T06:46:13.771Z,24.8
2018-06-11T06:56:12.419Z,25.1
2018-06-11T07:06:11.864Z,25.5
2018-06-11T07:16:11.160Z,25.5
2018-06-11T07:26:10.919Z,25.4
2018-06-11T07:36:09.327Z,25.8
2018-06-11T07:46:08.615Z,25.6
2018-06-11T07:56:07.921Z,25.7
2018-06-11T08:06:07.369Z,25.8
2018-06-11T08:16:06.298Z,26.3
2018-06-11T08:26:06.183Z,26.3
2018-06-11T08:36:05.282Z,26.3
2018-06-11T08:46:05.118Z,26.4
2018-06-11T08:56:03.780Z,26.5
2018-06-11T09:06:03.220Z,26.6
2018-06-11T09:16:02.519Z,26.6
2018-06-11T09:26:01.283Z,26.7
2018-06-11T09:36:00.915Z,26.8
2018-06-11T09:45:59.619Z,26.9
2018-06-11T09:55:58.544Z,27.3
2018-06-11T10:05:58.170Z,27.2
2018-06-11T10:15:57.028Z,27.2
2018-06-11T10:25:56.657Z,27.3
2018-06-11T10:35:56.446Z,27.4
2018-06-11T10:45:54.658Z,27.4
2018-06-11T10:55:53.910Z,27.3
2018-06-11T11:05:53.727Z,27.4
2018-06-11T11:15:52.855Z,27.4
2018-06-11T11:25:53.102Z,27.3
2018-06-11T11:35:51.233Z,27.3
2018-06-11T11:45:50.404Z,27.4
2018-06-11T11:55:49.752Z,27.6
2018-06-11T12:05:48.613Z,27.6
2018-06-11T12:15:47.819Z,27.6
2018-06-11T12:25:47.225Z,27.6
2018-06-11T12:35:46.571Z,27.6
2018-06-11T12:45:46.022Z,27.6
2018-06-11T12:55:44.734Z,27.7
2018-06-11T13:05:44.570Z,27.8
2018-06-11T13:15:43.582Z,27.7
2018-06-11T13:25:42.735Z,27.7
2018-06-11T13:35:41.981Z,27.6
2018-06-11T13:45:41.166Z,27.8
2018-06-11T13:55:41.372Z,27.7
2018-06-11T14:05:40.069Z,27.8
2018-06-11T14:15:38.539Z,27.6
2018-06-11T14:25:38.460Z,27.5
2018-06-11T14:35:37.634Z,27.3
2018-06-11T14:45:37.121Z,27.3
2018-06-11T14:55:36.198Z,27.3
2018-06-11T15:05:35.598Z,27.3
2018-06-11T15:15:34.856Z,27.3
2018-06-11T15:25:33.523Z,27.4
2018-06-11T15:35:32.430Z,27.3
2018-06-11T15:45:32.015Z,27.2
2018-06-11T15:55:31.187Z,27.2
2018-06-11T16:05:30.138Z,27.1
2018-06-11T16:15:29.965Z,27.1
2018-06-11T16:25:29.141Z,27
2018-06-11T16:35:27.860Z,26.9
2018-06-11T16:45:27.342Z,26.8
2018-06-11T16:55:26.922Z,26.7
2018-06-11T17:05:26.337Z,26.6
2018-06-11T17:15:24.723Z,26.6
2018-06-11T17:25:24.869Z,26.4
2018-06-11T17:35:23.944Z,26.3
2018-06-11T17:45:23.184Z,26.3
2018-06-11T17:55:21.978Z,26.1
2018-06-11T18:05:21.995Z,25.9
2018-06-11T18:15:20.115Z,25.8
2018-06-11T18:25:19.652Z,25.7
2018-06-11T18:35:18.977Z,25.6
2018-06-11T18:45:18.554Z,25.5
2018-06-11T18:55:18.502Z,25.4
2018-06-11T19:05:17.293Z,25.3
2018-06-11T19:15:16.082Z,25.3
2018-06-11T19:25:14.908Z,25.2
2018-06-11T19:35:14.370Z,25
2018-06-11T19:45:13.249Z,24.6
2018-06-11T19:55:12.744Z,24.3
2018-06-11T20:05:11.801Z,23.9
2018-06-11T20:15:11.610Z,23.6
2018-06-11T20:25:11.196Z,23.4
2018-06-11T20:35:09.746Z,23.1
2018-06-11T20:45:09.677Z,22.9
2018-06-11T20:55:08.593Z,22.8
2018-06-11T21:05:07.499Z,22.8
2018-06-11T21:15:06.685Z,22.8
2018-06-11T21:25:05.821Z,22.6
2018-06-11T21:35:05.374Z,22.6
2018-06-11T21:45:04.356Z,22.5
2018-06-11T21:55:03.409Z,22.4
2018-06-11T22:05:02.563Z,22.3
2018-06-11T22:15:03.115Z,22.1
2018-06-11T22:25:01.961Z,22.1
2018-06-11T22:35:00.589Z,22
2018-06-11T22:44:59.951Z,21.9
2018-06-11T22:54:59.228Z,21.8
2018-06-11T23:04:58.375Z,21.6
2018-06-11T23:14:57.608Z,21.4
2018-06-11T23:24:57.834Z,21.4
2018-06-11T23:34:56.380Z,21.3
2018-06-11T23:44:55.227Z,21.3
2018-06-11T23:54:54.476Z,21.2
